createdAt,value
2022-09-15T00:01:42.290Z,99209.97
2022-09-15T00:04:10.874Z,99213.53
2022-09-15T00:06:39.135Z,99223.19
2022-09-15T00:09:07.642Z,99224.72
2022-09-15T00:11:38.708Z,99228.00
2022-09-15T00:14:08.922Z,99228.38
2022-09-15T00:16:37.529Z,99221.63
2022-09-15T00:19:07.700Z,99225.56
2022-09-15T00:21:39.510Z,99224.00
2022-09-15T00:24:11.259Z,99214.25
2022-09-15T00:26:40.669Z,99215.75
2022-09-15T00:29:12.302Z,99206.41
2022-09-15T00:31:41.072Z,99203.75
2022-09-15T00:34:14.639Z,99199.19
2022-09-15T00:36:42.904Z,99207.59
2022-09-15T00:39:12.420Z,99215.56
2022-09-15T00:41:41.424Z,99217.31
2022-09-15T00:45:01.001Z,99212.31
2022-09-15T00:47:36.768Z,99214.63
2022-09-15T00:50:10.786Z,99219.72
2022-09-15T00:52:45.273Z,99217.69
2022-09-15T00:55:19.959Z,99207.28
2022-09-15T00:57:55.076Z,99212.59
2022-09-15T01:00:27.433Z,99221.75
2022-09-15T01:02:57.491Z,99226.69
2022-09-15T01:05:35.596Z,99232.56
2022-09-15T01:08:09.558Z,99228.56
2022-09-15T01:10:41.089Z,99221.53
2022-09-15T01:13:12.911Z,99210.91
2022-09-15T01:15:54.645Z,99215.78
2022-09-15T01:18:29.503Z,99214.56
2022-09-15T01:21:29.568Z,99211.56
2022-09-15T01:24:38.010Z,99211.19
2022-09-15T01:27:42.914Z,99214.94
2022-09-15T01:30:15.344Z,99217.88
2022-09-15T01:33:13.321Z,99221.88
2022-09-15T01:35:55.103Z,99218.19
2022-09-15T01:38:33.985Z,99222.88
2022-09-15T01:41:09.242Z,99228.75
2022-09-15T01:43:44.569Z,99232.31
2022-09-15T01:46:18.971Z,99226.75
2022-09-15T01:48:50.513Z,99217.19
2022-09-15T01:51:19.578Z,99214.88
2022-09-15T01:53:50.928Z,99220.06
2022-09-15T01:56:19.655Z,99211.28
2022-09-15T01:58:52.203Z,99222.44
2022-09-15T02:01:29.721Z,99229.28
2022-09-15T02:04:04.291Z,99222.81
2022-09-15T02:06:41.113Z,99216.50
2022-09-15T02:09:15.779Z,99217.25
2022-09-15T02:11:55.174Z,99214.56
2022-09-15T02:14:43.635Z,99219.06
2022-09-15T02:17:18.739Z,99211.28
2022-09-15T02:19:52.250Z,99201.75
2022-09-15T02:22:27.731Z,99215.81
2022-09-15T02:25:02.926Z,99210.44
2022-09-15T02:27:37.680Z,99212.94
2022-09-15T02:30:12.687Z,99218.78
2022-09-15T02:32:49.066Z,99220.19
2022-09-15T02:35:18.441Z,99221.06
2022-09-15T02:37:47.584Z,99223.81
2022-09-15T02:40:15.978Z,99220.44
2022-09-15T02:42:55.827Z,99215.09
2022-09-15T02:45:25.194Z,99216.81
2022-09-15T02:47:54.809Z,99223.41
2022-09-15T02:50:23.047Z,99220.16
2022-09-15T02:52:51.265Z,99226.75
2022-09-15T02:55:19.596Z,99229.31
2022-09-15T02:57:47.778Z,99233.56
2022-09-15T03:00:20.112Z,99228.34
2022-09-15T03:02:51.649Z,99235.03
2022-09-15T03:05:24.736Z,99242.72
2022-09-15T03:07:53.955Z,99240.56
2022-09-15T03:10:24.053Z,99238.53
2022-09-15T03:12:54.776Z,99237.66
2022-09-15T03:15:25.436Z,99239.56
2022-09-15T03:17:54.891Z,99247.31
2022-09-15T03:20:28.106Z,99244.50
2022-09-15T03:22:56.707Z,99248.69
2022-09-15T03:25:26.833Z,99251.47
2022-09-15T03:27:56.609Z,99248.50
2022-09-15T03:30:24.907Z,99245.31
2022-09-15T03:32:53.511Z,99254.38
2022-09-15T03:35:21.731Z,99250.09
2022-09-15T03:37:51.179Z,99251.28
2022-09-15T03:40:19.401Z,99249.03
2022-09-15T03:42:47.583Z,99255.56
2022-09-15T03:45:16.003Z,99255.72
2022-09-15T03:47:44.139Z,99252.47
2022-09-15T03:50:12.272Z,99256.44
2022-09-15T03:52:40.433Z,99264.56
2022-09-15T03:55:11.027Z,99264.75
2022-09-15T03:57:39.178Z,99267.53
2022-09-15T04:00:09.674Z,99263.13
2022-09-15T04:02:37.795Z,99261.75
2022-09-15T04:05:07.354Z,99263.03
2022-09-15T04:07:35.583Z,99260.69
2022-09-15T04:10:04.615Z,99263.13
2022-09-15T04:12:34.467Z,99257.59
2022-09-15T04:15:03.905Z,99253.25
2022-09-15T04:17:32.141Z,99254.88
2022-09-15T04:20:00.340Z,99253.59
2022-09-15T04:22:32.151Z,99258.00
2022-09-15T04:25:00.358Z,99266.91
2022-09-15T04:27:28.911Z,99254.25
2022-09-15T04:29:58.669Z,99260.63
2022-09-15T04:32:29.577Z,99250.91
2022-09-15T04:34:57.739Z,99244.75
2022-09-15T04:37:26.883Z,99247.03
2022-09-15T04:39:55.137Z,99238.34
2022-09-15T04:42:23.901Z,99238.09
2022-09-15T04:44:52.135Z,99242.34
2022-09-15T04:47:21.671Z,99246.78
2022-09-15T04:49:49.796Z,99249.19
2022-09-15T04:52:18.157Z,99250.63
2022-09-15T04:54:46.323Z,99247.22
2022-09-15T04:57:14.559Z,99254.38
2022-09-15T04:59:42.783Z,99254.06
2022-09-15T05:02:11.247Z,99251.19
2022-09-15T05:04:40.905Z,99240.88
2022-09-15T05:07:09.072Z,99249.28
2022-09-15T05:09:37.279Z,99240.50
2022-09-15T05:12:06.113Z,99252.19
2022-09-15T05:14:34.357Z,99252.09
2022-09-15T05:17:02.697Z,99254.28
2022-09-15T05:19:30.899Z,99250.75
2022-09-15T05:22:00.535Z,99255.50
2022-09-15T05:24:28.655Z,99259.69
2022-09-15T05:26:56.824Z,99267.38
2022-09-15T05:29:25.163Z,99261.97
2022-09-15T05:31:54.646Z,99264.84
2022-09-15T05:34:22.904Z,99263.78
2022-09-15T05:36:51.145Z,99265.25
2022-09-15T05:39:20.731Z,99271.09
2022-09-15T05:41:48.956Z,99277.09
2022-09-15T05:44:18.219Z,99270.38
2022-09-15T05:46:46.385Z,99264.16
2022-09-15T05:49:15.068Z,99270.22
2022-09-15T05:51:44.545Z,99270.03
2022-09-15T05:54:12.719Z,99282.25
2022-09-15T05:56:42.537Z,99277.38
2022-09-15T05:59:10.717Z,99283.78
2022-09-15T06:01:39.108Z,99280.88
2022-09-15T06:04:07.324Z,99283.78
2022-09-15T06:06:35.497Z,99284.63
2022-09-15T06:09:07.226Z,99281.69
2022-09-15T06:11:35.436Z,99287.41
2022-09-15T06:14:06.000Z,99291.75
2022-09-15T06:16:36.050Z,99293.25
2022-09-15T06:19:04.531Z,99287.59
2022-09-15T06:21:33.996Z,99290.00
2022-09-15T06:24:04.480Z,99283.03
2022-09-15T06:26:32.882Z,99279.13
2022-09-15T06:29:03.202Z,99295.59
2022-09-15T06:31:35.663Z,99284.44
2022-09-15T06:34:05.422Z,99284.91
2022-09-15T06:36:34.342Z,99288.16
2022-09-15T06:39:02.844Z,99283.06
2022-09-15T06:41:52.502Z,99284.34
2022-09-15T06:44:20.093Z,99302.16
2022-09-15T06:46:50.260Z,99304.22
2022-09-15T06:49:19.080Z,99296.09
2022-09-15T06:51:47.399Z,99309.72
2022-09-15T06:54:16.677Z,99310.50
2022-09-15T06:56:45.604Z,99315.19
2022-09-15T06:59:14.721Z,99318.13
2022-09-15T07:01:44.186Z,99316.63
2022-09-15T07:04:14.108Z,99319.31
2022-09-15T07:06:42.479Z,99316.50
2022-09-15T07:09:13.100Z,99321.97
2022-09-15T07:11:42.073Z,99312.69
2022-09-15T07:14:10.386Z,99310.13
2022-09-15T07:16:38.782Z,99315.06
2022-09-15T07:19:07.312Z,99305.88
2022-09-15T07:21:37.299Z,99307.41
2022-09-15T07:24:07.594Z,99315.06
2022-09-15T07:26:36.369Z,99312.00
2022-09-15T07:29:07.362Z,99311.72
2022-09-15T07:31:38.956Z,99319.38
2022-09-15T07:34:08.638Z,99316.84
2022-09-15T07:36:38.281Z,99332.06
2022-09-15T07:39:07.145Z,99325.31
2022-09-15T07:41:35.416Z,99318.50
2022-09-15T07:44:04.645Z,99321.31
2022-09-15T07:46:34.409Z,99330.00
2022-09-15T07:49:03.827Z,99340.66
2022-09-15T07:51:32.193Z,99335.13
2022-09-15T07:54:02.512Z,99341.31
2022-09-15T07:56:30.757Z,99342.38
2022-09-15T07:58:59.627Z,99327.47
2022-09-15T08:01:28.092Z,99324.94
2022-09-15T08:03:56.347Z,99324.78
2022-09-15T08:06:27.471Z,99328.84
2022-09-15T08:09:00.384Z,99336.47
2022-09-15T08:11:31.792Z,99340.47
2022-09-15T08:14:03.338Z,99331.19
2022-09-15T08:16:31.697Z,99338.09
2022-09-15T08:18:59.948Z,99329.19
2022-09-15T08:21:29.197Z,99336.53
2022-09-15T08:23:59.831Z,99336.72
2022-09-15T08:26:30.915Z,99350.44
2022-09-15T08:29:00.572Z,99349.84
2022-09-15T08:31:29.322Z,99349.56
2022-09-15T08:33:58.282Z,99353.13
2022-09-15T08:36:27.734Z,99356.25
2022-09-15T08:38:57.050Z,99362.94
2022-09-15T08:41:32.281Z,99379.34
2022-09-15T08:44:09.683Z,99369.25
2022-09-15T08:46:47.922Z,99371.59
2022-09-15T08:49:47.413Z,99376.91
2022-09-15T08:52:20.855Z,99385.97
2022-09-15T08:54:52.355Z,99387.06
2022-09-15T08:57:25.807Z,99387.59
2022-09-15T08:59:55.672Z,99398.41
2022-09-15T09:02:56.147Z,99388.09
2022-09-15T09:05:48.523Z,99389.56
2022-09-15T09:08:39.100Z,99389.03
2022-09-15T09:11:19.879Z,99389.75
2022-09-15T09:14:07.672Z,99386.00
2022-09-15T09:16:53.818Z,99387.44
2022-09-15T09:19:50.553Z,99391.84
2022-09-15T09:22:24.969Z,99394.06
2022-09-15T09:24:56.666Z,99403.28
2022-09-15T09:27:29.799Z,99394.13
2022-09-15T09:30:03.840Z,99396.16
2022-09-15T09:32:43.715Z,99397.69
2022-09-15T09:35:21.557Z,99389.84
2022-09-15T09:37:51.282Z,99381.97
2022-09-15T09:40:20.580Z,99398.13
2022-09-15T09:42:49.112Z,99388.09
2022-09-15T09:45:20.238Z,99377.75
2022-09-15T09:47:48.470Z,99377.88
2022-09-15T09:50:35.717Z,99382.66
2022-09-15T09:53:27.297Z,99372.69
2022-09-15T09:56:15.387Z,99373.47
2022-09-15T09:58:44.718Z,99367.00
2022-09-15T10:01:16.947Z,99371.09
2022-09-15T10:03:46.445Z,99378.53
2022-09-15T10:06:19.514Z,99372.31
2022-09-15T10:08:57.880Z,99369.41
2022-09-15T10:11:43.124Z,99382.00
2022-09-15T10:14:23.849Z,99383.25
2022-09-15T10:17:02.309Z,99372.91
2022-09-15T10:19:32.101Z,99380.47
2022-09-15T10:22:02.353Z,99372.50
2022-09-15T10:24:36.932Z,99379.41
2022-09-15T10:27:21.077Z,99365.47
2022-09-15T10:29:49.557Z,99360.41
2022-09-15T10:32:30.173Z,99356.53
2022-09-15T10:35:04.828Z,99368.34
2022-09-15T10:37:51.001Z,99352.69
2022-09-15T10:40:45.742Z,99347.59
2022-09-15T10:43:33.774Z,99350.47
2022-09-15T10:46:20.860Z,99341.31
2022-09-15T10:49:11.895Z,99337.47
2022-09-15T10:51:55.103Z,99328.03
2022-09-15T10:54:41.203Z,99335.88
2022-09-15T11:00:05.728Z,99330.88
2022-09-15T11:02:59.037Z,99326.69
2022-09-15T11:05:52.050Z,99320.03
2022-09-15T11:08:52.283Z,99329.88
2022-09-15T11:11:34.397Z,99334.03
2022-09-15T11:14:20.255Z,99339.28
2022-09-15T11:17:07.937Z,99340.16
2022-09-15T11:20:04.222Z,99336.28
2022-09-15T11:22:39.680Z,99334.78
2022-09-15T11:25:17.945Z,99339.56
2022-09-15T11:27:53.920Z,99334.63
2022-09-15T11:30:24.816Z,99328.66
2022-09-15T11:33:01.389Z,99332.00
2022-09-15T11:35:46.164Z,99329.44
2022-09-15T11:38:32.375Z,99337.25
2022-09-15T11:41:17.677Z,99334.91
2022-09-15T11:44:02.271Z,99338.28
2022-09-15T11:46:45.545Z,99348.66
2022-09-15T11:49:19.920Z,99340.75
2022-09-15T11:52:00.520Z,99338.59
2022-09-15T11:54:39.151Z,99337.00
2022-09-15T11:57:16.002Z,99347.53
2022-09-15T11:59:54.759Z,99346.53
2022-09-15T12:02:31.895Z,99340.56
2022-09-15T12:05:15.028Z,99338.94
2022-09-15T12:07:51.259Z,99348.97
2022-09-15T12:10:27.483Z,99344.66
2022-09-15T12:12:56.679Z,99343.63
2022-09-15T12:15:27.690Z,99347.03
2022-09-15T12:18:37.437Z,99345.03
2022-09-15T12:21:15.240Z,99345.31
2022-09-15T12:23:51.751Z,99346.09
2022-09-15T12:26:24.356Z,99338.78
2022-09-15T12:28:57.265Z,99338.13
2022-09-15T12:31:37.089Z,99338.47
2022-09-15T12:34:24.419Z,99336.84
2022-09-15T12:36:54.684Z,99340.25
2022-09-15T12:39:30.032Z,99343.53
2022-09-15T12:42:18.666Z,99339.47
2022-09-15T12:44:53.637Z,99346.34
2022-09-15T12:47:36.705Z,99351.41
2022-09-15T12:50:22.879Z,99346.09
2022-09-15T12:52:54.561Z,99346.38
2022-09-15T12:55:26.722Z,99351.53
2022-09-15T12:58:00.151Z,99348.97
2022-09-15T13:00:33.551Z,99350.31
2022-09-15T13:03:04.498Z,99354.72
2022-09-15T13:06:21.268Z,99343.22
2022-09-15T13:09:13.074Z,99350.47
2022-09-15T13:14:30.065Z,99347.75
2022-09-15T13:17:05.981Z,99347.53
2022-09-15T13:19:43.595Z,99352.59
2022-09-15T13:22:27.263Z,99346.44
2022-09-15T13:25:01.788Z,99338.47
2022-09-15T13:27:37.035Z,99335.31
2022-09-15T13:30:24.139Z,99337.84
2022-09-15T13:33:02.368Z,99334.72
2022-09-15T13:36:01.715Z,99343.19
2022-09-15T13:39:00.458Z,99337.38
2022-09-15T13:42:03.634Z,99347.19
2022-09-15T13:45:32.672Z,99346.59
2022-09-15T13:48:31.064Z,99351.28
2022-09-15T13:51:02.588Z,99352.28
2022-09-15T13:53:52.257Z,99350.66
2022-09-15T13:56:27.840Z,99349.84
2022-09-15T13:59:09.678Z,99358.16
2022-09-15T14:01:39.887Z,99382.16
2022-09-15T14:04:16.563Z,99392.53
2022-09-15T14:06:47.896Z,99397.19
2022-09-15T14:09:19.728Z,99388.72
2022-09-15T14:11:51.261Z,99389.84
2022-09-15T14:14:36.892Z,99395.56
2022-09-15T14:17:05.462Z,99389.69
2022-09-15T14:19:38.322Z,99392.97
2022-09-15T14:22:27.114Z,99384.81
2022-09-15T14:24:59.872Z,99391.06
2022-09-15T14:27:31.368Z,99385.03
2022-09-15T14:30:04.633Z,99380.56
2022-09-15T14:32:38.913Z,99381.38
2022-09-15T14:35:19.681Z,99387.22
2022-09-15T14:37:50.815Z,99388.56
2022-09-15T14:40:24.608Z,99381.47
2022-09-15T14:42:52.850Z,99379.31
2022-09-15T14:48:18.493Z,99389.38
2022-09-15T14:50:59.565Z,99386.88
2022-09-15T14:53:30.065Z,99387.66
2022-09-15T14:56:08.205Z,99388.44
2022-09-15T14:58:41.651Z,99394.94
2022-09-15T15:01:17.679Z,99392.78
2022-09-15T15:03:53.717Z,99392.78
2022-09-15T15:06:32.631Z,99396.63
2022-09-15T15:09:08.256Z,99391.53
2022-09-15T15:11:41.740Z,99398.69
2022-09-15T15:14:12.792Z,99389.69
2022-09-15T15:16:53.235Z,99396.53
2022-09-15T15:19:40.516Z,99388.09
2022-09-15T15:22:20.979Z,99384.75
2022-09-15T15:24:52.433Z,99385.97
2022-09-15T15:27:41.552Z,99383.78
2022-09-15T15:30:48.401Z,99387.50
2022-09-15T15:33:24.043Z,99384.53
2022-09-15T15:36:11.752Z,99386.13
2022-09-15T15:38:47.645Z,99385.53
2022-09-15T15:41:22.559Z,99388.47
2022-09-15T15:44:00.751Z,99392.09
2022-09-15T15:46:50.428Z,99388.78
2022-09-15T15:49:20.976Z,99394.53
2022-09-15T15:51:50.144Z,99387.03
2022-09-15T15:54:22.620Z,99397.19
2022-09-15T15:56:50.730Z,99393.75
2022-09-15T15:59:20.197Z,99387.25
2022-09-15T16:01:53.715Z,99390.28
2022-09-15T16:04:22.436Z,99391.50
2022-09-15T16:06:51.760Z,99391.72
2022-09-15T16:09:21.822Z,99393.34
2022-09-15T16:11:50.718Z,99398.56
2022-09-15T16:14:18.921Z,99398.13
2022-09-15T16:16:47.153Z,99394.44
2022-09-15T16:19:15.395Z,99390.88
2022-09-15T16:21:44.271Z,99392.69
2022-09-15T16:24:16.327Z,99392.91
2022-09-15T16:26:50.636Z,99388.84
2022-09-15T16:29:30.033Z,99390.84
2022-09-15T16:31:58.826Z,99385.00
2022-09-15T16:34:27.225Z,99391.47
2022-09-15T16:36:55.445Z,99384.41
2022-09-15T16:39:23.882Z,99394.34
2022-09-15T16:41:53.464Z,99390.06
2022-09-15T16:44:21.905Z,99384.41
2022-09-15T16:46:50.331Z,99386.03
2022-09-15T16:49:21.012Z,99384.41
2022-09-15T16:51:49.317Z,99396.13
2022-09-15T16:54:20.213Z,99394.53
2022-09-15T16:56:48.436Z,99394.94
2022-09-15T16:59:17.968Z,99388.13
2022-09-15T17:01:46.450Z,99403.13
2022-09-15T17:04:19.013Z,99393.84
2022-09-15T17:06:47.405Z,99396.50
2022-09-15T17:09:15.789Z,99404.97
2022-09-15T17:11:44.725Z,99405.97
2022-09-15T17:14:18.505Z,99401.69
2022-09-15T17:16:52.584Z,99402.97
2022-09-15T17:19:21.159Z,99403.34
2022-09-15T17:21:52.597Z,99411.66
2022-09-15T17:24:21.666Z,99409.06
2022-09-15T17:26:49.991Z,99413.50
2022-09-15T17:29:20.736Z,99413.38
2022-09-15T17:31:48.899Z,99416.78
2022-09-15T17:34:19.886Z,99422.25
2022-09-15T17:36:51.468Z,99419.53
2022-09-15T17:39:21.068Z,99418.59
2022-09-15T17:41:49.338Z,99417.19
2022-09-15T17:44:19.050Z,99412.13
2022-09-15T17:46:47.244Z,99413.59
2022-09-15T17:49:15.822Z,99411.34
2022-09-15T17:51:43.969Z,99407.25
2022-09-15T17:54:12.434Z,99415.03
2022-09-15T17:56:40.865Z,99418.00
2022-09-15T17:59:13.081Z,99421.00
2022-09-15T18:01:45.865Z,99421.09
2022-09-15T18:04:14.056Z,99436.50
2022-09-15T18:06:45.541Z,99438.09
2022-09-15T18:09:14.986Z,99452.75
2022-09-15T18:11:43.247Z,99455.69
2022-09-15T18:14:12.197Z,99451.56
2022-09-15T18:16:41.424Z,99451.50
2022-09-15T18:19:10.934Z,99453.59
2022-09-15T18:21:39.197Z,99442.91
2022-09-15T18:24:07.899Z,99452.59
2022-09-15T18:26:36.119Z,99442.09
2022-09-15T18:29:04.427Z,99450.44
2022-09-15T18:31:33.243Z,99449.00
2022-09-15T18:34:02.752Z,99452.97
2022-09-15T18:36:32.291Z,99451.34
2022-09-15T18:39:00.842Z,99458.00
2022-09-15T18:41:29.049Z,99456.97
2022-09-15T18:43:57.525Z,99461.84
2022-09-15T18:46:25.958Z,99469.63
2022-09-15T18:48:54.539Z,99483.75
2022-09-15T18:51:29.136Z,99480.75
2022-09-15T18:54:04.955Z,99481.03
2022-09-15T18:56:33.285Z,99476.25
2022-09-15T18:59:01.587Z,99484.75
2022-09-15T19:01:30.322Z,99483.31
2022-09-15T19:03:58.739Z,99482.13
2022-09-15T19:06:27.134Z,99479.75
2022-09-15T19:08:55.565Z,99483.56
2022-09-15T19:11:25.181Z,99483.19
2022-09-15T19:13:54.384Z,99481.81
2022-09-15T19:16:34.504Z,99480.78
2022-09-15T19:19:11.701Z,99485.72
2022-09-15T19:21:39.888Z,99480.69
2022-09-15T19:24:08.289Z,99483.59
2022-09-15T19:26:38.048Z,99480.34
2022-09-15T19:29:07.629Z,99480.13
2022-09-15T19:31:41.809Z,99472.78
2022-09-15T19:34:10.682Z,99488.38
2022-09-15T19:36:39.262Z,99488.56
2022-09-15T19:39:07.694Z,99485.50
2022-09-15T19:41:37.658Z,99484.13
2022-09-15T19:44:08.431Z,99483.13
2022-09-15T19:46:37.891Z,99484.13
2022-09-15T19:49:06.554Z,99485.69
2022-09-15T19:51:35.773Z,99493.03
2022-09-15T19:54:05.206Z,99498.53
2022-09-15T19:56:37.310Z,99500.91
2022-09-15T19:59:07.224Z,99502.25
2022-09-15T20:01:37.795Z,99497.78
2022-09-15T20:04:06.539Z,99497.69
2022-09-15T20:06:34.765Z,99501.34
2022-09-15T20:09:03.044Z,99500.06
2022-09-15T20:11:32.757Z,99501.16
2022-09-15T20:14:02.826Z,99506.88
2022-09-15T20:16:32.031Z,99502.34
2022-09-15T20:19:00.785Z,99499.56
2022-09-15T20:21:49.371Z,99497.53
2022-09-15T20:24:19.740Z,99504.13
2022-09-15T20:26:48.693Z,99505.78
2022-09-15T20:29:18.470Z,99515.47
2022-09-15T20:31:46.874Z,99510.53
2022-09-15T20:34:15.419Z,99509.56
2022-09-15T20:36:45.460Z,99522.34
2022-09-15T20:39:15.842Z,99515.81
2022-09-15T20:41:45.630Z,99517.09
2022-09-15T20:44:14.527Z,99518.00
2022-09-15T20:46:44.267Z,99521.28
2022-09-15T20:49:13.262Z,99527.97
2022-09-15T20:51:43.911Z,99521.53
2022-09-15T20:54:12.278Z,99523.34
2022-09-15T20:56:40.655Z,99519.38
2022-09-15T20:59:14.915Z,99526.53
2022-09-15T21:01:44.952Z,99526.53
2022-09-15T21:04:13.568Z,99527.06
2022-09-15T21:06:42.268Z,99529.63
2022-09-15T21:09:10.626Z,99526.09
2022-09-15T21:11:39.746Z,99523.63
2022-09-15T21:14:08.229Z,99528.25
2022-09-15T21:16:36.795Z,99533.34
2022-09-15T21:19:07.950Z,99532.06
2022-09-15T21:21:36.762Z,99533.16
2022-09-15T21:24:08.523Z,99530.41
2022-09-15T21:27:00.879Z,99537.69
2022-09-15T21:29:29.932Z,99534.69
2022-09-15T21:31:58.883Z,99537.94
2022-09-15T21:34:31.606Z,99539.22
2022-09-15T21:37:00.966Z,99543.13
2022-09-15T21:39:29.613Z,99544.56
2022-09-15T21:41:59.239Z,99537.78
2022-09-15T21:44:28.147Z,99542.38
2022-09-15T21:46:56.543Z,99536.75
2022-09-15T21:49:25.328Z,99539.22
2022-09-15T21:51:54.931Z,99546.69
2022-09-15T21:54:23.915Z,99545.34
2022-09-15T21:56:52.356Z,99532.94
2022-09-15T21:59:20.487Z,99541.91
2022-09-15T22:01:49.151Z,99541.13
2022-09-15T22:04:17.549Z,99543.28
2022-09-15T22:06:46.781Z,99547.34
2022-09-15T22:09:21.130Z,99554.94
2022-09-15T22:11:49.467Z,99550.88
2022-09-15T22:14:17.780Z,99554.16
2022-09-15T22:16:46.104Z,99540.09
2022-09-15T22:19:15.166Z,99559.47
2022-09-15T22:21:43.290Z,99551.44
2022-09-15T22:24:14.049Z,99554.41
2022-09-15T22:26:44.163Z,99561.94
2022-09-15T22:29:12.654Z,99556.72
2022-09-15T22:31:41.944Z,99552.78
2022-09-15T22:34:10.872Z,99556.50
2022-09-15T22:36:39.175Z,99554.94
2022-09-15T22:39:07.796Z,99547.50
2022-09-15T22:41:38.578Z,99550.38
2022-09-15T22:44:18.574Z,99546.53
2022-09-15T22:46:46.859Z,99556.69
2022-09-15T22:49:15.096Z,99559.47
2022-09-15T22:51:43.288Z,99557.13
2022-09-15T22:54:11.585Z,99556.59
2022-09-15T22:56:41.995Z,99556.97
2022-09-15T22:59:12.064Z,99544.28
2022-09-15T23:01:40.756Z,99542.63
2022-09-15T23:04:09.449Z,99550.59
2022-09-15T23:06:39.743Z,99545.91
2022-09-15T23:09:10.456Z,99547.16
2022-09-15T23:11:42.800Z,99547.06
2022-09-15T23:14:15.899Z,99540.81
2022-09-15T23:16:44.804Z,99540.25
2022-09-15T23:19:16.688Z,99537.94
2022-09-15T23:21:44.925Z,99539.84
2022-09-15T23:24:13.882Z,99541.44
2022-09-15T23:26:42.031Z,99548.13
2022-09-15T23:29:10.225Z,99546.88
2022-09-15T23:31:40.086Z,99549.78
2022-09-15T23:34:08.338Z,99544.28
2022-09-15T23:36:38.738Z,99541.50
2022-09-15T23:39:06.884Z,99542.75
2022-09-15T23:41:36.670Z,99538.88
2022-09-15T23:44:05.329Z,99542.03
2022-09-15T23:46:34.592Z,99535.88
2022-09-15T23:49:04.149Z,99536.28
2022-09-15T23:51:33.526Z,99540.63
2022-09-15T23:54:03.246Z,99543.47
2022-09-15T23:56:33.466Z,99550.50
2022-09-15T23:59:02.269Z,99538.84
